Shinsei Maru — JD2188 — position and weather

sailwx.info

Track history (hours):
 
Tides and Currents Weather Stations Pressure Air Temp Water Temp Dewpoint Dewpoint Depression Visibility Wind Speed Wind Dir Waves Ship Positions

Shinsei Maru

Last reported at 2017-Sep-22 02:00 UTC. Time now 2017-Sep-22 04:14 UTC.
Position N 33°60' E 134°58'.

Length 104 m; draft 6.5 m.

Type: Tanker. MMSI: 431301775.

Date/timePositionNaut miles runAvg speedWind from/ knotsBaromVisibWave heightAir tempDewpointWater temp
2017-Sep-22 02:00N 33°60' E 134°58'613.4
2017-Sep-22 01:31N 34°06' E 135°02'612.9
2017-Sep-22 01:01N 34°11' E 135°06'3 5.0
2017-Sep-22 00:28N 34°13' E 135°08'0 0.0
2017-Sep-21 23:58N 34°13' E 135°08'0 0.0
2017-Sep-21 23:28N 34°13' E 135°08'0 0.0
2017-Sep-21 22:58N 34°13' E 135°08'0 0.0
2017-Sep-21 22:28N 34°13' E 135°08'0 0.0
2017-Sep-21 21:58N 34°13' E 135°08'0 0.0
2017-Sep-21 21:28N 34°13' E 135°08'0 0.0
2017-Sep-21 20:58N 34°13' E 135°08'0 0.0
2017-Sep-21 20:28N 34°13' E 135°08'0 0.0
2017-Sep-21 19:58N 34°13' E 135°08'0 0.0
2017-Sep-21 19:28N 34°13' E 135°08'0 0.0
2017-Sep-21 18:58N 34°13' E 135°08'0 0.0
2017-Sep-21 18:28N 34°13' E 135°08'0 0.0
2017-Sep-21 17:58N 34°13' E 135°08'0 0.0
2017-Sep-21 17:28N 34°13' E 135°08'0 0.0
2017-Sep-21 16:58N 34°13' E 135°08'0 0.0
2017-Sep-21 16:28N 34°13' E 135°08'0 0.0
2017-Sep-21 15:58N 34°13' E 135°08'0 0.0
2017-Sep-21 15:28N 34°13' E 135°08'0 0.0
2017-Sep-21 14:58N 34°13' E 135°08'0 0.0
2017-Sep-21 14:28N 34°13' E 135°08'0 0.0
2017-Sep-21 13:58N 34°13' E 135°08'0 0.0
2017-Sep-21 13:28N 34°13' E 135°08'0 0.0
2017-Sep-21 12:58N 34°13' E 135°08'0 0.0
2017-Sep-21 12:28N 34°13' E 135°08'0 0.0
2017-Sep-21 11:58N 34°13' E 135°08'0 0.0
2017-Sep-21 11:28N 34°13' E 135°08'0 0.0
2017-Sep-21 10:58N 34°13' E 135°08'0 0.0
2017-Sep-21 10:28N 34°13' E 135°08'0 0.0
2017-Sep-21 09:58N 34°13' E 135°08'0 0.0
2017-Sep-21 09:28N 34°13' E 135°08'0 0.0
2017-Sep-21 08:58N 34°13' E 135°08'0 0.0
2017-Sep-21 08:28N 34°13' E 135°08'0 0.0
2017-Sep-21 07:58N 34°13' E 135°08'0 0.0
2017-Sep-21 07:28N 34°13' E 135°08'0 0.1
2017-Sep-21 06:58N 34°13' E 135°08'0 0.1
2017-Sep-21 06:28N 34°13' E 135°08'0 0.0
2017-Sep-21 05:58N 34°13' E 135°08'0 0.0
2017-Sep-21 05:28N 34°13' E 135°08'0 0.0
2017-Sep-21 04:58N 34°13' E 135°08'1 1.4
2017-Sep-21 04:30N 34°13' E 135°08'5 9.3
2017-Sep-21 04:01N 34°09' E 135°10'2 0.4
2017-Sep-21 00:02N 34°09' E 135°12'0 0.1
2017-Sep-20 23:59N 34°09' E 135°12'0 0.9
2017-Sep-20 23:30N 34°09' E 135°11'2 3.7
2017-Sep-20 23:00N 34°09' E 135°09'0 0.0
2017-Sep-20 22:30N 34°09' E 135°09'0 0.1
2017-Sep-20 22:00N 34°09' E 135°09'0 0.1
2017-Sep-20 21:30N 34°09' E 135°09'0 0.1
2017-Sep-20 21:00N 34°09' E 135°09'0 0.0
2017-Sep-20 19:09N 34°09' E 135°09'0 0.0
2017-Sep-20 18:45N 34°09' E 135°09'0 0.0
2017-Sep-20 18:30N 34°09' E 135°09'0 0.0
2017-Sep-20 17:57N 34°09' E 135°09'0 0.0
2017-Sep-20 17:30N 34°09' E 135°09'0 0.0
2017-Sep-20 17:00N 34°09' E 135°09'0 0.0
2017-Sep-20 16:24N 34°09' E 135°09'0 0.0
2017-Sep-20 15:57N 34°09' E 135°09'0 0.1
2017-Sep-20 15:30N 34°09' E 135°09'0 0.0
2017-Sep-20 14:57N 34°09' E 135°09'10 9.9
2017-Sep-20 13:55N 34°15' E 134°59'511.8
2017-Sep-20 13:28N 34°20' E 134°59'613.3
2017-Sep-20 13:00N 34°27' E 135°01'612.5
2017-Sep-20 12:30N 34°33' E 135°02'4 8.6
2017-Sep-20 12:00N 34°37' E 135°01'510.8
2017-Sep-20 11:30N 34°35' E 134°55'4 0.1
2017-Sep-19 06:33N 34°37' E 134°58'111.8
2017-Sep-19 06:30N 34°38' E 134°59'510.4
2017-Sep-19 06:00N 34°35' E 135°05'510.6
2017-Sep-19 05:30N 34°32' E 135°09'611.9
2017-Sep-19 05:00N 34°29' E 135°16'1 2.4
2017-Sep-19 04:28N 34°28' E 135°17'0 0.0
2017-Sep-19 03:52N 34°28' E 135°17'0 0.1
2017-Sep-19 03:28N 34°28' E 135°17'0 0.0
2017-Sep-19 02:58N 34°28' E 135°17'0 0.2
2017-Sep-19 02:22N 34°28' E 135°17'0 0.0
2017-Sep-19 01:52N 34°28' E 135°17'0 0.0
2017-Sep-18 23:52N 34°28' E 135°17'0 0.2
2017-Sep-18 23:22N 34°28' E 135°17'0 0.1
2017-Sep-18 22:46N 34°28' E 135°17'0 0.0
2017-Sep-18 22:16N 34°28' E 135°17'0 0.0
2017-Sep-18 21:58N 34°28' E 135°17'0 0.0
2017-Sep-18 21:28N 34°28' E 135°17'0 0.0
2017-Sep-18 20:22N 34°28' E 135°17'0 0.1
2017-Sep-18 19:52N 34°28' E 135°17'0 0.1
2017-Sep-18 19:28N 34°28' E 135°17'0 0.0
2017-Sep-18 17:28N 34°28' E 135°17'0 0.0
2017-Sep-18 16:58N 34°28' E 135°17'0 0.0
2017-Sep-18 13:10N 34°28' E 135°17'0 0.0
2017-Sep-18 12:58N 34°28' E 135°17'0 0.0
2017-Sep-18 12:28N 34°28' E 135°17'0 0.1
2017-Sep-18 11:28N 34°28' E 135°17'0 0.0
2017-Sep-18 10:52N 34°28' E 135°17'0 0.0
2017-Sep-18 10:28N 34°28' E 135°17'0 0.0
2017-Sep-18 09:58N 34°28' E 135°17'0 0.0
2017-Sep-18 08:28N 34°28' E 135°17'0 0.0
2017-Sep-18 07:58N 34°28' E 135°17'0 0.0
2017-Sep-18 07:22N 34°28' E 135°17'0 0.0
2017-Sep-18 06:58N 34°28' E 135°17'0 0.0
2017-Sep-18 05:40N 34°28' E 135°17'0 0.0
2017-Sep-18 05:16N 34°28' E 135°17'0 0.1
2017-Sep-18 04:28N 34°28' E 135°17'0 0.0
2017-Sep-18 03:52N 34°28' E 135°17'0 0.0
2017-Sep-18 03:28N 34°28' E 135°17'0 0.0
2017-Sep-18 02:58N 34°28' E 135°17'0 0.0
2017-Sep-18 02:28N 34°28' E 135°17'0 0.0
2017-Sep-18 01:58N 34°28' E 135°17'0 0.0
2017-Sep-18 01:28N 34°28' E 135°17'0 0.5
2017-Sep-18 00:59N 34°28' E 135°17'1 0.4
2017-Sep-17 23:04N 34°28' E 135°18'0 0.0
2017-Sep-17 22:58N 34°28' E 135°18'0 0.0
2017-Sep-17 22:28N 34°28' E 135°18'0 0.0
2017-Sep-17 21:04N 34°28' E 135°18'0 0.2
2017-Sep-17 20:46N 34°28' E 135°18'0 0.0
2017-Sep-17 20:19N 34°28' E 135°18'0 0.1
2017-Sep-17 19:58N 34°28' E 135°18'0 0.0
2017-Sep-17 19:28N 34°28' E 135°18'0 0.0
2017-Sep-17 18:58N 34°28' E 135°18'0 0.0
2017-Sep-17 18:28N 34°28' E 135°18'0 0.0
2017-Sep-17 17:46N 34°28' E 135°18'0 0.1
2017-Sep-17 17:10N 34°28' E 135°18'0 0.1
2017-Sep-17 16:22N 34°28' E 135°18'0 0.0
2017-Sep-17 15:55N 34°28' E 135°18'0 0.0
2017-Sep-17 15:22N 34°28' E 135°18'0 0.0
2017-Sep-17 14:56N 34°28' E 135°18'0 0.0
2017-Sep-17 14:16N 34°28' E 135°18'0 0.3
2017-Sep-17 13:58N 34°28' E 135°18'0 0.0
2017-Sep-17 13:28N 34°28' E 135°18'0 0.1
2017-Sep-17 12:52N 34°28' E 135°18'0 0.0
2017-Sep-17 12:28N 34°28' E 135°18'0 0.1
2017-Sep-17 11:58N 34°28' E 135°18'0 0.0
2017-Sep-16 21:52N 34°28' E 135°18'0 0.0
2017-Sep-16 03:05N 34°28' E 135°18'0 1.0
2017-Sep-16 02:59N 34°28' E 135°18'510.9
2017-Sep-16 02:30N 34°32' E 135°22'2 0.1
2017-Sep-15 03:54N 34°31' E 135°24'2 4.7
2017-Sep-15 03:24N 34°32' E 135°22'2 0.3
2017-Sep-14 22:05N 34°31' E 135°20'0 0.0
2017-Sep-14 21:47N 34°31' E 135°20'0 0.0
2017-Sep-14 21:29N 34°31' E 135°20'0 0.0
2017-Sep-14 20:53N 34°31' E 135°20'0 0.0
2017-Sep-14 20:29N 34°31' E 135°20'0 0.0
2017-Sep-14 19:59N 34°31' E 135°20'0 0.0
2017-Sep-14 19:29N 34°31' E 135°20'0 0.0
2017-Sep-14 18:53N 34°31' E 135°20'0 0.0
2017-Sep-14 18:29N 34°31' E 135°20'0 0.0
2017-Sep-14 15:29N 34°31' E 135°20'0 0.0
2017-Sep-14 10:47N 34°31' E 135°20'0 0.0
2017-Sep-14 10:17N 34°31' E 135°20'0 0.0
2017-Sep-14 09:47N 34°31' E 135°20'0 0.0
2017-Sep-14 08:35N 34°31' E 135°20'0 0.0
2017-Sep-14 08:30N 34°31' E 135°20'510.0
2017-Sep-14 07:59N 34°29' E 135°14'714.2
2017-Sep-14 07:30N 34°25' E 135°08'1014.2
2017-Sep-14 06:49N 34°18' E 134°60'514.8
2017-Sep-14 06:30N 34°13' E 134°60'714.5
2017-Sep-14 06:00N 34°06' E 135°00'22110.7
2017-Sep-13 09:21N 34°52' E 139°22'511.5
2017-Sep-13 08:56N 34°55' E 139°27'512.0
2017-Sep-13 08:30N 34°59' E 139°32'612.7
2017-Sep-13 08:00N 35°03' E 139°37'713.7
2017-Sep-13 07:30N 35°08' E 139°43'612.1
2017-Sep-13 07:00N 35°13' E 139°46'612.3
2017-Sep-13 06:30N 35°19' E 139°43'612.3
2017-Sep-13 06:01N 35°25' E 139°43'714.0
2017-Sep-13 05:31N 35°29' E 139°51'713.5
2017-Sep-13 05:00N 35°32' E 139°58'4 0.5
2017-Sep-12 21:16N 35°31' E 140°02'0 0.4
2017-Sep-12 21:00N 35°31' E 140°02'1 0.7
2017-Sep-12 19:07N 35°32' E 140°02'0 0.0
2017-Sep-12 18:50N 35°32' E 140°02'0 0.0
2017-Sep-12 18:30N 35°32' E 140°02'0 0.0
2017-Sep-12 17:59N 35°32' E 140°02'0 0.1
2017-Sep-12 17:30N 35°32' E 140°02'0 0.0
2017-Sep-12 16:55N 35°32' E 140°02'0 0.0
2017-Sep-12 16:30N 35°32' E 140°02'0 0.0
2017-Sep-12 14:01N 35°32' E 140°02'0 0.0
2017-Sep-12 14:00N 35°32' E 140°02'0 0.0
2017-Sep-12 08:24N 35°32' E 140°02'0 0.0
2017-Sep-12 07:47N 35°32' E 140°02'0 0.0
2017-Sep-12 06:31N 35°32' E 140°02'0 0.0
2017-Sep-12 02:51N 35°32' E 140°01'3 9.7
2017-Sep-12 02:30N 35°31' E 139°57'713.3
2017-Sep-12 02:00N 35°28' E 139°51'  
Track history (hours):
 
Tides and Currents Weather Stations Pressure Air Temp Water Temp Dewpoint Dewpoint Depression Visibility Wind Speed Wind Dir Waves Ship Positions

Shinsei Maru

Last reported at 2017-Sep-22 02:00 UTC. Time now 2017-Sep-22 04:14 UTC.
Position N 33°60' E 134°58'.

Length 104 m; draft 6.5 m.

Type: Tanker. MMSI: 431301775.

Date/timePositionNaut miles runAvg speedWind from/ knotsBaromVisibWave heightAir tempDewpointWater temp
2017-Sep-22 02:00N 33°60' E 134°58'613.4
2017-Sep-22 01:31N 34°06' E 135°02'612.9
2017-Sep-22 01:01N 34°11' E 135°06'3 5.0
2017-Sep-22 00:28N 34°13' E 135°08'0 0.0
2017-Sep-21 23:58N 34°13' E 135°08'0 0.0
2017-Sep-21 23:28N 34°13' E 135°08'0 0.0
2017-Sep-21 22:58N 34°13' E 135°08'0 0.0
2017-Sep-21 22:28N 34°13' E 135°08'0 0.0
2017-Sep-21 21:58N 34°13' E 135°08'0 0.0
2017-Sep-21 21:28N 34°13' E 135°08'0 0.0
2017-Sep-21 20:58N 34°13' E 135°08'0 0.0
2017-Sep-21 20:28N 34°13' E 135°08'0 0.0
2017-Sep-21 19:58N 34°13' E 135°08'0 0.0
2017-Sep-21 19:28N 34°13' E 135°08'0 0.0
2017-Sep-21 18:58N 34°13' E 135°08'0 0.0
2017-Sep-21 18:28N 34°13' E 135°08'0 0.0
2017-Sep-21 17:58N 34°13' E 135°08'0 0.0
2017-Sep-21 17:28N 34°13' E 135°08'0 0.0
2017-Sep-21 16:58N 34°13' E 135°08'0 0.0
2017-Sep-21 16:28N 34°13' E 135°08'0 0.0
2017-Sep-21 15:58N 34°13' E 135°08'0 0.0
2017-Sep-21 15:28N 34°13' E 135°08'0 0.0
2017-Sep-21 14:58N 34°13' E 135°08'0 0.0
2017-Sep-21 14:28N 34°13' E 135°08'0 0.0
2017-Sep-21 13:58N 34°13' E 135°08'0 0.0
2017-Sep-21 13:28N 34°13' E 135°08'0 0.0
2017-Sep-21 12:58N 34°13' E 135°08'0 0.0
2017-Sep-21 12:28N 34°13' E 135°08'0 0.0
2017-Sep-21 11:58N 34°13' E 135°08'0 0.0
2017-Sep-21 11:28N 34°13' E 135°08'0 0.0
2017-Sep-21 10:58N 34°13' E 135°08'0 0.0
2017-Sep-21 10:28N 34°13' E 135°08'0 0.0
2017-Sep-21 09:58N 34°13' E 135°08'0 0.0
2017-Sep-21 09:28N 34°13' E 135°08'0 0.0
2017-Sep-21 08:58N 34°13' E 135°08'0 0.0
2017-Sep-21 08:28N 34°13' E 135°08'0 0.0
2017-Sep-21 07:58N 34°13' E 135°08'0 0.0
2017-Sep-21 07:28N 34°13' E 135°08'0 0.1
2017-Sep-21 06:58N 34°13' E 135°08'0 0.1
2017-Sep-21 06:28N 34°13' E 135°08'0 0.0
2017-Sep-21 05:58N 34°13' E 135°08'0 0.0
2017-Sep-21 05:28N 34°13' E 135°08'0 0.0
2017-Sep-21 04:58N 34°13' E 135°08'1 1.4
2017-Sep-21 04:30N 34°13' E 135°08'5 9.3
2017-Sep-21 04:01N 34°09' E 135°10'2 0.4
2017-Sep-21 00:02N 34°09' E 135°12'0 0.1
2017-Sep-20 23:59N 34°09' E 135°12'0 0.9
2017-Sep-20 23:30N 34°09' E 135°11'2 3.7
2017-Sep-20 23:00N 34°09' E 135°09'0 0.0
2017-Sep-20 22:30N 34°09' E 135°09'0 0.1
2017-Sep-20 22:00N 34°09' E 135°09'0 0.1
2017-Sep-20 21:30N 34°09' E 135°09'0 0.1
2017-Sep-20 21:00N 34°09' E 135°09'0 0.0
2017-Sep-20 19:09N 34°09' E 135°09'0 0.0
2017-Sep-20 18:45N 34°09' E 135°09'0 0.0
2017-Sep-20 18:30N 34°09' E 135°09'0 0.0
2017-Sep-20 17:57N 34°09' E 135°09'0 0.0
2017-Sep-20 17:30N 34°09' E 135°09'0 0.0
2017-Sep-20 17:00N 34°09' E 135°09'0 0.0
2017-Sep-20 16:24N 34°09' E 135°09'0 0.0
2017-Sep-20 15:57N 34°09' E 135°09'0 0.1
2017-Sep-20 15:30N 34°09' E 135°09'0 0.0
2017-Sep-20 14:57N 34°09' E 135°09'10 9.9
2017-Sep-20 13:55N 34°15' E 134°59'511.8
2017-Sep-20 13:28N 34°20' E 134°59'613.3
2017-Sep-20 13:00N 34°27' E 135°01'612.5
2017-Sep-20 12:30N 34°33' E 135°02'4 8.6
2017-Sep-20 12:00N 34°37' E 135°01'510.8
2017-Sep-20 11:30N 34°35' E 134°55'4 0.1
2017-Sep-19 06:33N 34°37' E 134°58'111.8
2017-Sep-19 06:30N 34°38' E 134°59'510.4
2017-Sep-19 06:00N 34°35' E 135°05'510.6
2017-Sep-19 05:30N 34°32' E 135°09'611.9
2017-Sep-19 05:00N 34°29' E 135°16'1 2.4
2017-Sep-19 04:28N 34°28' E 135°17'0 0.0
2017-Sep-19 03:52N 34°28' E 135°17'0 0.1
2017-Sep-19 03:28N 34°28' E 135°17'0 0.0
2017-Sep-19 02:58N 34°28' E 135°17'0 0.2
2017-Sep-19 02:22N 34°28' E 135°17'0 0.0
2017-Sep-19 01:52N 34°28' E 135°17'0 0.0
2017-Sep-18 23:52N 34°28' E 135°17'0 0.2
2017-Sep-18 23:22N 34°28' E 135°17'0 0.1
2017-Sep-18 22:46N 34°28' E 135°17'0 0.0
2017-Sep-18 22:16N 34°28' E 135°17'0 0.0
2017-Sep-18 21:58N 34°28' E 135°17'0 0.0
2017-Sep-18 21:28N 34°28' E 135°17'0 0.0
2017-Sep-18 20:22N 34°28' E 135°17'0 0.1
2017-Sep-18 19:52N 34°28' E 135°17'0 0.1
2017-Sep-18 19:28N 34°28' E 135°17'0 0.0
2017-Sep-18 17:28N 34°28' E 135°17'0 0.0
2017-Sep-18 16:58N 34°28' E 135°17'0 0.0
2017-Sep-18 13:10N 34°28' E 135°17'0 0.0
2017-Sep-18 12:58N 34°28' E 135°17'0 0.0
2017-Sep-18 12:28N 34°28' E 135°17'0 0.1
2017-Sep-18 11:28N 34°28' E 135°17'0 0.0
2017-Sep-18 10:52N 34°28' E 135°17'0 0.0
2017-Sep-18 10:28N 34°28' E 135°17'0 0.0
2017-Sep-18 09:58N 34°28' E 135°17'0 0.0
2017-Sep-18 08:28N 34°28' E 135°17'0 0.0
2017-Sep-18 07:58N 34°28' E 135°17'0 0.0
2017-Sep-18 07:22N 34°28' E 135°17'0 0.0
2017-Sep-18 06:58N 34°28' E 135°17'0 0.0
2017-Sep-18 05:40N 34°28' E 135°17'0 0.0
2017-Sep-18 05:16N 34°28' E 135°17'0 0.1
2017-Sep-18 04:28N 34°28' E 135°17'0 0.0
2017-Sep-18 03:52N 34°28' E 135°17'0 0.0
2017-Sep-18 03:28N 34°28' E 135°17'0 0.0
2017-Sep-18 02:58N 34°28' E 135°17'0 0.0
2017-Sep-18 02:28N 34°28' E 135°17'0 0.0
2017-Sep-18 01:58N 34°28' E 135°17'0 0.0
2017-Sep-18 01:28N 34°28' E 135°17'0 0.5
2017-Sep-18 00:59N 34°28' E 135°17'1 0.4
2017-Sep-17 23:04N 34°28' E 135°18'0 0.0
2017-Sep-17 22:58N 34°28' E 135°18'0 0.0
2017-Sep-17 22:28N 34°28' E 135°18'0 0.0
2017-Sep-17 21:04N 34°28' E 135°18'0 0.2
2017-Sep-17 20:46N 34°28' E 135°18'0 0.0
2017-Sep-17 20:19N 34°28' E 135°18'0 0.1
2017-Sep-17 19:58N 34°28' E 135°18'0 0.0
2017-Sep-17 19:28N 34°28' E 135°18'0 0.0
2017-Sep-17 18:58N 34°28' E 135°18'0 0.0
2017-Sep-17 18:28N 34°28' E 135°18'0 0.0
2017-Sep-17 17:46N 34°28' E 135°18'0 0.1
2017-Sep-17 17:10N 34°28' E 135°18'0 0.1
2017-Sep-17 16:22N 34°28' E 135°18'0 0.0
2017-Sep-17 15:55N 34°28' E 135°18'0 0.0
2017-Sep-17 15:22N 34°28' E 135°18'0 0.0
2017-Sep-17 14:56N 34°28' E 135°18'0 0.0
2017-Sep-17 14:16N 34°28' E 135°18'0 0.3
2017-Sep-17 13:58N 34°28' E 135°18'0 0.0
2017-Sep-17 13:28N 34°28' E 135°18'0 0.1
2017-Sep-17 12:52N 34°28' E 135°18'0 0.0
2017-Sep-17 12:28N 34°28' E 135°18'0 0.1
2017-Sep-17 11:58N 34°28' E 135°18'0 0.0
2017-Sep-16 21:52N 34°28' E 135°18'0 0.0
2017-Sep-16 03:05N 34°28' E 135°18'0 1.0
2017-Sep-16 02:59N 34°28' E 135°18'510.9
2017-Sep-16 02:30N 34°32' E 135°22'2 0.1
2017-Sep-15 03:54N 34°31' E 135°24'2 4.7
2017-Sep-15 03:24N 34°32' E 135°22'2 0.3
2017-Sep-14 22:05N 34°31' E 135°20'0 0.0
2017-Sep-14 21:47N 34°31' E 135°20'0 0.0
2017-Sep-14 21:29N 34°31' E 135°20'0 0.0
2017-Sep-14 20:53N 34°31' E 135°20'0 0.0
2017-Sep-14 20:29N 34°31' E 135°20'0 0.0
2017-Sep-14 19:59N 34°31' E 135°20'0 0.0
2017-Sep-14 19:29N 34°31' E 135°20'0 0.0
2017-Sep-14 18:53N 34°31' E 135°20'0 0.0
2017-Sep-14 18:29N 34°31' E 135°20'0 0.0
2017-Sep-14 15:29N 34°31' E 135°20'0 0.0
2017-Sep-14 10:47N 34°31' E 135°20'0 0.0
2017-Sep-14 10:17N 34°31' E 135°20'0 0.0
2017-Sep-14 09:47N 34°31' E 135°20'0 0.0
2017-Sep-14 08:35N 34°31' E 135°20'0 0.0
2017-Sep-14 08:30N 34°31' E 135°20'510.0
2017-Sep-14 07:59N 34°29' E 135°14'714.2
2017-Sep-14 07:30N 34°25' E 135°08'1014.2
2017-Sep-14 06:49N 34°18' E 134°60'514.8
2017-Sep-14 06:30N 34°13' E 134°60'714.5
2017-Sep-14 06:00N 34°06' E 135°00'22110.7
2017-Sep-13 09:21N 34°52' E 139°22'511.5
2017-Sep-13 08:56N 34°55' E 139°27'512.0
2017-Sep-13 08:30N 34°59' E 139°32'612.7
2017-Sep-13 08:00N 35°03' E 139°37'713.7
2017-Sep-13 07:30N 35°08' E 139°43'612.1
2017-Sep-13 07:00N 35°13' E 139°46'612.3
2017-Sep-13 06:30N 35°19' E 139°43'612.3
2017-Sep-13 06:01N 35°25' E 139°43'714.0
2017-Sep-13 05:31N 35°29' E 139°51'713.5
2017-Sep-13 05:00N 35°32' E 139°58'4 0.5
2017-Sep-12 21:16N 35°31' E 140°02'0 0.4
2017-Sep-12 21:00N 35°31' E 140°02'1 0.7
2017-Sep-12 19:07N 35°32' E 140°02'0 0.0
2017-Sep-12 18:50N 35°32' E 140°02'0 0.0
2017-Sep-12 18:30N 35°32' E 140°02'0 0.0
2017-Sep-12 17:59N 35°32' E 140°02'0 0.1
2017-Sep-12 17:30N 35°32' E 140°02'0 0.0
2017-Sep-12 16:55N 35°32' E 140°02'0 0.0
2017-Sep-12 16:30N 35°32' E 140°02'0 0.0
2017-Sep-12 14:01N 35°32' E 140°02'0 0.0
2017-Sep-12 14:00N 35°32' E 140°02'0 0.0
2017-Sep-12 08:24N 35°32' E 140°02'0 0.0
2017-Sep-12 07:47N 35°32' E 140°02'0 0.0
2017-Sep-12 06:31N 35°32' E 140°02'0 0.0
2017-Sep-12 02:51N 35°32' E 140°01'3 9.7
2017-Sep-12 02:30N 35°31' E 139°57'713.3
2017-Sep-12 02:00N 35°28' E 139°51'  

Dump ship's entire track history